Sault Ste. Marie, MI

10:11 AM EDT del 30 Marzo 2015 (GMT -0400)
Sault Ste Marie Municipal / Sanderson Field | | Change Station
CLOSE
Current Station
Aeroporto
Location: Sault Ste Marie,
Altitudine: 715 ft
Stazioni meteo nelle vicinanze

Alt. 715 ft 46.48 °N, 84.36 °W | Updated 4 minutes ago

Light Snow
Neve debole
30 °F
Sembra 19 °F
N
16
Vento Variabile Vento da ONO
Gusts 31 mph

Oggi
Massima -- | Minima -- °F
--% Possibilità di precip.
Ieri
Massima -- | Minima -- °F
Precip. -- in
7:21 AM 8:03 PM
Gobba a ponente, 80% visible
Pressione 29.73 in
Visibilità 2.0 miglia
Nuvole Nubi sparse 1500 ft
Molto nuvoloso 3300 ft
Coperto 5000 ft
Raffreddamento del vento 19 °F
Punto di rugiada 25 °F
Umidità 82%
Piovosità 0.01 in
Spessore del manto nevoso Non disponibile.
Raggi UV 1 fuori da 12
Polline 3.10 fuori da 12
Qualità dell'aria Non disponibile.
Flu Activity Non disponibile.
SPECI KANJ 301407Z AUTO 30014G27KT 2SM -SN SCT015 BKN033 OVC050 M01/M04 A2973 RMK AO2 PK WND 32027/1401 P0000 T10111039

More Conditions Fewer Conditions

Pressione 29.73 in
Visibilità 2.0 miglia
Nuvole Nubi sparse 1500 ft
Molto nuvoloso 3300 ft
Coperto 5000 ft
Raffreddamento del vento 19 °F
Punto di rugiada 25 °F
Umidità 82%
Piovosità 0.01 in
Spessore del manto nevoso Non disponibile.
Raggi UV 1 fuori da 12
Polline 3.10 fuori da 12
Qualità dell'aria Non disponibile.
Flu Activity Non disponibile.
SPECI KANJ 301407Z AUTO 30014G27KT 2SM -SN SCT015 BKN033 OVC050 M01/M04 A2973 RMK AO2 PK WND 32027/1401 P0000 T10111039

More Conditions Fewer Conditions

Nowcast | as of 10:00 am EDT on March 30, 2015

At 11 am...mostly cloudy. Temperature 30. Northwest winds 15 mph. At 1 PM...partly cloudy. Temperature 31. Northwest winds 16 mph. At 3 PM...partly cloudy. Temperature 32. Northwest winds 16 mph. At 5 PM...partly cloudy. Temperature 32. Northwest winds 16 mph.

×

10-Day Weather Forecast

Almanac

Astronomia

Mar. 30, 2015 Alba Tramonto
Ora attuale
Crepuscolo civile
Crepuscolo nautico
Crepuscolo astronomico
Luna
Estensione della luce visibile
Lunghezza del giorno
Tomorrow will be .
, % of the Moon is Illuminated

Gli estremi di oggi

State Highs State Lows

Community

WunderPhotos

Upload Photos

1,809,502 foto caricate!

WunderBlogs® & News

Nearby

Qualità dell'aria

  Qualità dell'aria Indice AQ Inquinante
Not available.

Profondità neve

Stazione Profondità Altitudine

Attività sismica

Città  Distanza Mag. Data & Ora
Minimo Magnitudo Mostrato è 2.5.

Temperature delle acque costiere

Località Temperatura

Stations

Stazioni meteo nelle vicinanze

Ubicazione della stazione Temp. Raffreddamento del vento Punto di rugiada Umidità Vento Precip. Alt. Aggiornato Tipo